Time;durP1;ratioP1;P1;durP2;ratioP2;P2;SDS_P1;SDS_P2;PMS_P1;PMS_P2;Temp;Humidity;BMP_temperature;BMP_pressure;BME280_temperature;BME280_humidity;BME280_pressure;Samples;Min_cycle;Max_cycle;Signal;HPM_P1;HPM_P2
2023/07/24 00:01:05;;;;;;;3.67;3.37;;;17.90;99.90;;;;;;5072411;28;20961;-65
2023/07/24 00:03:32;;;;;;;3.40;3.20;;;17.90;99.90;;;;;;5062495;28;20194;-67
2023/07/24 00:06:00;;;;;;;3.30;3.10;;;17.90;99.90;;;;;;5075836;28;20251;-66
2023/07/24 00:08:28;;;;;;;5.30;3.20;;;17.90;99.90;;;;;;5078379;28;20789;-66
2023/07/24 00:10:55;;;;;;;3.43;3.10;;;17.90;99.90;;;;;;5082313;28;20697;-66
2023/07/24 00:13:21;;;;;;;3.80;3.03;;;17.90;99.90;;;;;;5062087;28;20210;-68
2023/07/24 00:15:48;;;;;;;3.67;3.00;;;17.80;99.90;;;;;;5083125;28;20274;-66
2023/07/24 00:18:15;;;;;;;3.33;3.13;;;17.80;99.90;;;;;;5070537;28;20200;-66
2023/07/24 00:20:42;;;;;;;2.87;2.67;;;17.80;99.90;;;;;;5072222;28;20214;-66
2023/07/24 00:23:09;;;;;;;4.67;3.23;;;17.80;99.90;;;;;;5072645;28;20223;-66
2023/07/24 00:25:37;;;;;;;3.17;2.87;;;17.80;99.90;;;;;;5073783;28;20216;-66
2023/07/24 00:28:04;;;;;;;3.07;2.80;;;17.80;99.90;;;;;;5080745;28;20247;-67
2023/07/24 00:30:31;;;;;;;3.60;3.30;;;17.80;99.90;;;;;;5082721;28;20214;-66
2023/07/24 00:32:58;;;;;;;3.60;2.80;;;17.80;99.90;;;;;;5076075;28;20287;-66
2023/07/24 00:35:25;;;;;;;3.27;3.07;;;17.80;99.90;;;;;;5083783;28;20196;-66
2023/07/24 00:37:52;;;;;;;4.10;3.70;;;17.80;99.90;;;;;;5069203;28;20221;-66
2023/07/24 00:40:19;;;;;;;4.17;3.17;;;17.80;99.90;;;;;;5075838;28;20928;-66
2023/07/24 00:42:49;;;;;;;3.50;3.20;;;17.80;99.90;;;;;;5083658;28;20571;-67
2023/07/24 00:45:16;;;;;;;3.13;2.93;;;17.70;99.90;;;;;;5063559;28;20206;-66
2023/07/24 00:47:44;;;;;;;3.37;3.07;;;17.70;99.90;;;;;;5074860;28;20195;-66
2023/07/24 00:50:13;;;;;;;3.50;3.30;;;17.70;99.90;;;;;;5074154;28;20210;-66
2023/07/24 00:52:40;;;;;;;4.90;3.87;;;17.70;99.90;;;;;;5081222;28;20210;-66
2023/07/24 00:55:08;;;;;;;3.30;3.00;;;17.70;99.90;;;;;;5069944;28;20277;-66
2023/07/24 00:57:35;;;;;;;3.30;3.10;;;17.60;99.90;;;;;;5083333;28;20202;-66
2023/07/24 01:00:04;;;;;;;3.80;3.50;;;17.60;99.90;;;;;;5058683;28;20225;-66
2023/07/24 01:02:31;;;;;;;4.87;3.37;;;17.60;99.90;;;;;;5077208;28;20281;-67
2023/07/24 01:04:58;;;;;;;3.53;3.23;;;17.70;99.90;;;;;;5074333;28;20206;-66
2023/07/24 01:07:25;;;;;;;3.20;2.90;;;17.70;99.90;;;;;;5075649;28;21803;-66
2023/07/24 01:09:52;;;;;;;4.07;3.73;;;17.70;99.90;;;;;;5077047;28;20186;-66
2023/07/24 01:12:23;;;;;;;3.93;3.63;;;17.70;99.90;;;;;;5078384;28;20218;-66
2023/07/24 01:14:55;;;;;;;4.13;3.50;;;17.70;99.90;;;;;;5078063;28;20190;-66
2023/07/24 01:17:26;;;;;;;4.47;3.60;;;17.70;99.90;;;;;;5082135;28;20189;-67
2023/07/24 01:19:56;;;;;;;3.40;3.10;;;17.70;99.90;;;;;;5075992;28;20243;-66
2023/07/24 01:22:33;;;;;;;4.43;3.30;;;17.70;99.90;;;;;;5064290;28;20246;-66
2023/07/24 01:25:10;;;;;;;3.90;3.60;;;17.70;99.90;;;;;;5070070;28;20206;-66
2023/07/24 01:27:42;;;;;;;5.60;4.07;;;17.70;99.90;;;;;;5081393;28;20255;-66
2023/07/24 01:30:10;;;;;;;4.10;3.80;;;17.70;99.90;;;;;;5060644;28;20430;-67
2023/07/24 01:32:37;;;;;;;4.07;3.77;;;17.70;99.90;;;;;;5083616;28;20214;-66
2023/07/24 01:35:05;;;;;;;4.37;3.97;;;17.70;99.90;;;;;;5073284;28;20202;-66
2023/07/24 01:37:32;;;;;;;5.10;4.70;;;17.70;99.90;;;;;;5074653;28;20943;-67
2023/07/24 01:40:00;;;;;;;4.63;4.23;;;17.70;99.90;;;;;;5070122;28;20218;-66
2023/07/24 01:42:28;;;;;;;5.80;4.40;;;17.80;99.90;;;;;;5078225;28;20191;-67
2023/07/24 01:44:56;;;;;;;4.53;4.13;;;17.80;99.90;;;;;;5082372;28;20727;-66
2023/07/24 01:47:23;;;;;;;5.40;4.00;;;17.80;99.90;;;;;;5064327;28;20277;-67
2023/07/24 01:49:50;;;;;;;4.13;3.63;;;17.80;99.90;;;;;;5068917;28;20201;-67
2023/07/24 01:52:17;;;;;;;4.87;4.03;;;17.80;99.90;;;;;;5072212;28;20317;-66
2023/07/24 01:54:44;;;;;;;4.83;4.23;;;17.80;99.90;;;;;;5076842;28;20197;-67
2023/07/24 01:57:11;;;;;;;3.83;3.53;;;17.80;99.90;;;;;;5071930;28;20439;-67
2023/07/24 01:59:38;;;;;;;5.80;3.60;;;17.80;99.90;;;;;;5081955;28;20294;-67
2023/07/24 02:02:06;;;;;;;3.77;3.47;;;17.80;99.90;;;;;;5052225;28;20205;-67
2023/07/24 02:04:33;;;;;;;3.80;3.50;;;17.80;99.90;;;;;;5083565;28;20194;-67
2023/07/24 02:07:00;;;;;;;3.90;3.50;;;17.80;99.90;;;;;;5079745;28;20938;-67
2023/07/24 02:09:27;;;;;;;4.97;3.83;;;17.80;99.90;;;;;;5073820;28;20206;-67
2023/07/24 02:11:54;;;;;;;4.23;3.93;;;17.80;99.90;;;;;;5071725;28;20244;-66
2023/07/24 02:14:21;;;;;;;4.03;3.60;;;17.90;99.90;;;;;;5075169;28;20214;-67
2023/07/24 02:16:48;;;;;;;4.00;3.70;;;17.90;99.90;;;;;;5064645;28;20297;-67
2023/07/24 02:19:16;;;;;;;4.07;3.77;;;17.80;99.90;;;;;;5080341;28;20197;-67
2023/07/24 02:21:43;;;;;;;3.83;3.53;;;17.80;99.90;;;;;;5077525;28;20225;-67
2023/07/24 02:24:10;;;;;;;4.37;4.00;;;17.80;99.90;;;;;;5072899;28;20973;-65
2023/07/24 02:26:36;;;;;;;4.70;4.30;;;17.80;99.90;;;;;;5082936;28;20201;-67
2023/07/24 02:29:03;;;;;;;5.37;3.70;;;17.80;99.90;;;;;;5084101;28;20255;-65
2023/07/24 02:31:30;;;;;;;3.60;3.30;;;17.80;99.90;;;;;;5086652;28;20716;-65
2023/07/24 02:33:57;;;;;;;4.37;3.97;;;17.80;99.90;;;;;;5065661;28;20737;-65
2023/07/24 02:36:25;;;;;;;4.40;4.10;;;17.80;99.90;;;;;;5082192;28;20247;-65
2023/07/24 02:38:52;;;;;;;6.27;4.00;;;17.70;99.90;;;;;;5073818;28;20206;-65
2023/07/24 02:41:19;;;;;;;7.63;4.23;;;17.70;99.90;;;;;;5067887;28;20226;-65
2023/07/24 02:43:46;;;;;;;5.03;4.63;;;17.70;99.90;;;;;;5085819;28;20549;-65
2023/07/24 02:46:13;;;;;;;5.23;4.73;;;17.70;99.90;;;;;;5082394;28;20235;-65
2023/07/24 02:48:40;;;;;;;6.13;5.27;;;17.70;99.90;;;;;;5063952;28;20290;-66
2023/07/24 02:51:06;;;;;;;5.67;5.27;;;17.60;99.90;;;;;;5081223;28;20206;-66
2023/07/24 02:53:34;;;;;;;6.13;5.60;;;17.60;99.90;;;;;;5078992;28;20222;-66
2023/07/24 02:56:03;;;;;;;6.63;6.00;;;17.60;99.90;;;;;;5075857;28;20197;-64
2023/07/24 02:58:30;;;;;;;6.63;6.00;;;17.60;99.90;;;;;;5079176;28;20201;-65
2023/07/24 03:01:04;;;;;;;6.40;5.80;;;17.60;99.90;;;;;;5077713;28;20271;-64
2023/07/24 03:03:30;;;;;;;6.17;5.67;;;17.60;99.90;;;;;;5067307;28;20213;-65
2023/07/24 03:05:57;;;;;;;6.60;5.90;;;17.60;99.90;;;;;;5083285;28;20236;-65
2023/07/24 03:08:24;;;;;;;6.57;5.83;;;17.50;99.90;;;;;;5078488;28;20477;-65
2023/07/24 03:10:52;;;;;;;6.37;5.87;;;17.50;99.90;;;;;;5073777;28;20275;-66
2023/07/24 03:13:19;;;;;;;5.97;5.40;;;17.50;99.90;;;;;;5071195;28;20217;-65
2023/07/24 03:15:53;;;;;;;6.90;6.20;;;17.50;99.90;;;;;;5085229;28;20205;-66
2023/07/24 03:18:20;;;;;;;7.07;5.97;;;17.50;99.90;;;;;;5077754;28;20201;-65
2023/07/24 03:20:47;;;;;;;6.90;5.97;;;17.50;99.90;;;;;;5067491;28;20222;-65
2023/07/24 03:23:14;;;;;;;6.00;5.50;;;17.50;99.90;;;;;;5073383;28;20198;-65
2023/07/24 03:25:40;;;;;;;6.63;5.90;;;17.50;99.90;;;;;;5069201;28;20194;-66
2023/07/24 03:28:09;;;;;;;7.50;6.43;;;17.50;99.90;;;;;;5058165;28;20282;-65
2023/07/24 03:30:36;;;;;;;6.93;6.23;;;17.50;99.90;;;;;;5081200;28;20506;-66
2023/07/24 03:33:06;;;;;;;7.20;6.57;;;17.50;99.90;;;;;;5072809;28;20680;-67
2023/07/24 03:35:33;;;;;;;6.10;5.47;;;17.50;99.90;;;;;;5064879;28;20224;-66
2023/07/24 03:38:00;;;;;;;6.07;5.57;;;17.50;99.90;;;;;;5078909;28;20820;-67
2023/07/24 03:40:27;;;;;;;7.10;5.73;;;17.50;99.90;;;;;;5065887;28;20218;-67
2023/07/24 03:42:53;;;;;;;5.87;5.47;;;17.60;99.90;;;;;;5085723;28;20190;-67
2023/07/24 03:45:22;;;;;;;5.60;5.10;;;17.60;99.90;;;;;;5073585;28;20197;-66
2023/07/24 03:47:49;;;;;;;6.53;4.93;;;17.60;99.90;;;;;;5079049;28;20201;-66
2023/07/24 03:50:16;;;;;;;6.77;5.20;;;17.70;99.90;;;;;;5061231;28;22431;-66
2023/07/24 03:52:42;;;;;;;5.63;5.03;;;17.60;99.90;;;;;;5085694;28;20726;-66
2023/07/24 03:55:10;;;;;;;5.40;4.90;;;17.70;99.90;;;;;;5083224;28;20190;-66
2023/07/24 03:57:37;;;;;;;5.20;4.70;;;17.70;99.90;;;;;;5075685;28;20677;-66
2023/07/24 04:00:05;;;;;;;6.17;5.37;;;17.70;99.90;;;;;;5071194;28;20727;-66
2023/07/24 04:02:40;;;;;;;6.03;5.07;;;17.70;99.90;;;;;;5078953;28;20220;-66
2023/07/24 04:05:07;;;;;;;6.10;5.50;;;17.80;99.90;;;;;;5082020;28;20264;-66
2023/07/24 04:07:34;;;;;;;9.13;4.97;;;17.80;99.90;;;;;;5059905;28;21211;-66
2023/07/24 04:10:01;;;;;;;6.77;5.20;;;17.80;99.90;;;;;;5077052;28;20218;-66
2023/07/24 04:12:29;;;;;;;5.37;4.87;;;17.80;99.90;;;;;;5071330;28;20190;-66
2023/07/24 04:14:56;;;;;;;5.77;4.90;;;17.80;99.90;;;;;;5077758;28;20218;-67
2023/07/24 04:17:24;;;;;;;5.07;4.67;;;17.90;99.90;;;;;;5068659;28;20198;-66
2023/07/24 04:19:52;;;;;;;5.63;4.50;;;17.90;99.90;;;;;;5081447;28;20204;-66
2023/07/24 04:22:18;;;;;;;5.67;5.17;;;17.90;99.90;;;;;;5068593;28;20206;-67
2023/07/24 04:24:45;;;;;;;5.13;4.63;;;17.90;99.90;;;;;;5069258;28;20226;-66
2023/07/24 04:27:12;;;;;;;5.10;4.27;;;17.90;99.90;;;;;;5072230;28;20463;-66
2023/07/24 04:29:39;;;;;;;5.57;5.00;;;17.90;99.90;;;;;;5078370;28;20213;-67
2023/07/24 04:32:06;;;;;;;5.23;4.73;;;17.90;99.90;;;;;;5074894;28;20954;-65
2023/07/24 04:34:33;;;;;;;5.07;4.50;;;17.80;99.90;;;;;;5082779;28;20272;-65
2023/07/24 04:37:02;;;;;;;5.33;4.70;;;17.90;99.90;;;;;;5075356;28;20816;-65
2023/07/24 04:39:28;;;;;;;4.87;4.47;;;17.90;99.90;;;;;;5084655;28;20186;-65
2023/07/24 04:41:55;;;;;;;5.03;4.37;;;17.90;99.90;;;;;;5070066;28;20225;-65
2023/07/24 04:44:22;;;;;;;6.90;5.03;;;17.90;99.90;;;;;;5065307;28;20256;-65
2023/07/24 04:46:50;;;;;;;4.87;4.47;;;17.90;99.90;;;;;;5077874;28;20185;-65
2023/07/24 04:49:17;;;;;;;4.90;4.60;;;17.80;99.90;;;;;;5075723;28;20206;-65
2023/07/24 04:51:44;;;;;;;5.37;4.87;;;17.80;99.90;;;;;;5079489;28;21048;-65
2023/07/24 04:54:12;;;;;;;5.17;4.77;;;17.90;99.90;;;;;;5063381;28;20217;-65
2023/07/24 04:56:38;;;;;;;5.30;4.90;;;17.90;99.90;;;;;;5074421;28;20682;-65
2023/07/24 04:59:05;;;;;;;6.20;4.70;;;17.90;99.90;;;;;;5070575;28;20358;-65
2023/07/24 05:01:32;;;;;;;6.07;4.93;;;17.80;99.90;;;;;;5075714;28;20218;-65
2023/07/24 05:03:59;;;;;;;4.67;4.27;;;17.90;99.90;;;;;;5074346;28;20270;-65
2023/07/24 05:06:26;;;;;;;5.17;4.67;;;17.90;99.90;;;;;;5083230;28;20251;-66
2023/07/24 05:08:54;;;;;;;5.93;5.33;;;17.90;99.90;;;;;;5057703;28;20677;-65
2023/07/24 05:11:22;;;;;;;4.90;4.47;;;17.90;99.90;;;;;;5075101;28;20302;-65
2023/07/24 05:13:49;;;;;;;5.50;4.93;;;17.90;99.90;;;;;;5072220;28;20225;-65
2023/07/24 05:16:15;;;;;;;8.87;4.83;;;17.90;99.90;;;;;;5061121;28;20197;-65
2023/07/24 05:18:42;;;;;;;5.40;4.80;;;18.00;99.90;;;;;;5070771;28;20255;-65
2023/07/24 05:21:09;;;;;;;6.47;4.57;;;18.00;99.90;;;;;;5074192;28;20677;-65
2023/07/24 05:23:36;;;;;;;5.53;5.03;;;18.00;99.90;;;;;;5071993;28;20202;-66
2023/07/24 05:26:04;;;;;;;5.80;5.20;;;18.10;99.90;;;;;;5059908;28;20239;-65
2023/07/24 05:28:33;;;;;;;5.27;4.77;;;18.10;99.90;;;;;;5061878;28;20236;-65
2023/07/24 05:31:02;;;;;;;5.73;5.30;;;18.20;99.90;;;;;;5071674;28;20221;-65
2023/07/24 05:33:28;;;;;;;4.97;4.57;;;18.30;99.90;;;;;;5068908;28;20218;-65
2023/07/24 05:35:59;;;;;;;5.00;4.50;;;18.30;99.90;;;;;;5064306;28;20209;-65
2023/07/24 05:38:26;;;;;;;5.97;5.10;;;18.40;99.90;;;;;;5074090;28;20206;-66
2023/07/24 05:40:56;;;;;;;5.37;4.87;;;18.50;99.90;;;;;;5062566;28;20286;-65
2023/07/24 05:43:23;;;;;;;5.57;5.07;;;18.50;99.90;;;;;;5067104;28;20206;-65
2023/07/24 05:45:51;;;;;;;6.77;4.80;;;18.50;99.90;;;;;;5069065;28;20202;-65
2023/07/24 05:48:18;;;;;;;5.90;5.40;;;18.60;99.90;;;;;;5073562;28;20204;-65
2023/07/24 05:50:45;;;;;;;5.90;5.40;;;18.60;99.90;;;;;;5068147;28;20214;-65
2023/07/24 05:53:12;;;;;;;5.20;4.77;;;18.60;99.90;;;;;;5076818;28;20558;-66
2023/07/24 05:55:39;;;;;;;5.70;5.20;;;18.60;99.90;;;;;;5073792;28;20266;-65
2023/07/24 05:58:05;;;;;;;8.33;5.70;;;18.60;99.90;;;;;;5063576;28;20678;-65
2023/07/24 06:00:33;;;;;;;5.60;5.07;;;18.60;99.90;;;;;;5066138;28;20228;-65
2023/07/24 06:03:01;;;;;;;6.00;5.40;;;18.60;99.90;;;;;;5075703;28;20194;-65
2023/07/24 06:05:28;;;;;;;5.90;5.07;;;18.60;99.90;;;;;;5068568;28;20312;-64
2023/07/24 06:07:55;;;;;;;5.97;5.10;;;18.60;99.90;;;;;;5075891;28;20281;-65
2023/07/24 06:10:22;;;;;;;5.83;5.33;;;18.70;99.90;;;;;;5074874;28;20697;-65
2023/07/24 06:12:48;;;;;;;5.03;4.63;;;18.70;99.90;;;;;;5053849;28;20209;-65
2023/07/24 06:15:15;;;;;;;5.23;4.83;;;18.80;99.90;;;;;;5059970;28;20238;-65
2023/07/24 06:17:42;;;;;;;6.83;5.03;;;18.90;99.90;;;;;;5075833;28;20259;-65
2023/07/24 06:20:11;;;;;;;4.60;4.30;;;19.00;99.90;;;;;;5063630;28;20236;-64
2023/07/24 06:22:38;;;;;;;5.33;4.83;;;19.10;99.90;;;;;;5076705;28;20731;-65
2023/07/24 06:25:05;;;;;;;5.90;5.13;;;19.20;99.90;;;;;;5073970;28;20595;-65
2023/07/24 06:27:32;;;;;;;6.00;5.50;;;19.30;99.90;;;;;;5078977;28;20915;-66
2023/07/24 06:29:59;;;;;;;7.07;5.70;;;19.40;99.90;;;;;;5056961;28;20221;-65
2023/07/24 06:32:26;;;;;;;5.80;5.30;;;19.40;99.90;;;;;;5070115;28;20217;-66
2023/07/24 06:34:52;;;;;;;5.70;5.17;;;19.40;99.90;;;;;;5060512;28;20249;-65
2023/07/24 06:37:20;;;;;;;6.83;5.73;;;19.50;99.90;;;;;;5077483;28;20194;-66
2023/07/24 06:39:47;;;;;;;6.63;5.57;;;19.50;99.90;;;;;;5074980;28;20265;-65
2023/07/24 06:42:14;;;;;;;6.03;5.53;;;19.60;99.90;;;;;;5069213;28;20236;-67
2023/07/24 06:44:41;;;;;;;5.80;5.27;;;19.60;99.90;;;;;;5062105;28;20202;-64
2023/07/24 06:47:08;;;;;;;6.57;6.00;;;19.60;99.90;;;;;;5071656;28;21746;-65
2023/07/24 06:49:35;;;;;;;6.37;5.73;;;19.70;99.90;;;;;;5073628;28;20255;-64
2023/07/24 06:52:01;;;;;;;7.50;5.47;;;19.80;99.90;;;;;;5079898;28;20248;-66
2023/07/24 06:54:30;;;;;;;6.73;6.07;;;19.80;99.90;;;;;;5079600;28;20222;-65
2023/07/24 06:56:56;;;;;;;6.13;5.63;;;19.80;99.90;;;;;;5070253;28;20182;-65
2023/07/24 06:59:24;;;;;;;6.17;5.67;;;19.80;99.90;;;;;;5060807;28;20302;-65
2023/07/24 07:01:51;;;;;;;6.00;5.50;;;19.80;99.90;;;;;;5069584;28;20451;-65
2023/07/24 07:04:18;;;;;;;5.77;5.20;;;19.80;99.90;;;;;;5083453;28;20636;-65
2023/07/24 07:06:44;;;;;;;5.80;5.30;;;19.70;99.90;;;;;;5073933;28;20653;-63
2023/07/24 07:09:11;;;;;;;6.20;5.70;;;19.70;99.90;;;;;;5085961;28;20198;-65
2023/07/24 07:11:39;;;;;;;6.40;5.80;;;19.70;99.90;;;;;;5065414;28;20225;-64
2023/07/24 07:14:08;;;;;;;6.83;5.93;;;19.60;99.90;;;;;;5078395;28;20209;-65
2023/07/24 07:16:35;;;;;;;6.10;5.60;;;19.50;99.90;;;;;;5064043;28;20217;-64
2023/07/24 07:19:02;;;;;;;5.70;5.28;;;19.50;99.90;;;;;;5071075;28;20205;-65
2023/07/24 07:21:29;;;;;;;6.33;5.83;;;19.40;99.90;;;;;;5075591;28;20218;-65
2023/07/24 07:23:56;;;;;;;6.30;5.72;;;19.40;99.90;;;;;;5074519;28;20917;-65
2023/07/24 07:26:23;;;;;;;6.13;5.53;;;19.30;99.90;;;;;;5069102;28;20194;-64
2023/07/24 07:28:51;;;;;;;6.07;5.53;;;19.30;99.90;;;;;;5076563;28;20190;-65
2023/07/24 07:31:18;;;;;;;6.15;5.55;;;19.30;99.90;;;;;;5058117;28;20214;-64
2023/07/24 07:33:44;;;;;;;6.13;5.40;;;19.30;99.90;;;;;;5063906;28;20230;-65
2023/07/24 07:36:12;;;;;;;5.53;5.03;;;19.30;99.90;;;;;;5078947;28;20821;-65
2023/07/24 07:38:39;;;;;;;6.00;5.50;;;19.30;99.90;;;;;;5073339;28;20243;-65
2023/07/24 07:41:06;;;;;;;6.37;5.77;;;19.40;99.90;;;;;;5085728;28;20232;-66
2023/07/24 07:43:34;;;;;;;6.13;5.63;;;19.50;99.90;;;;;;5075788;28;20206;-66
2023/07/24 07:46:03;;;;;;;6.13;5.63;;;19.50;99.90;;;;;;5081797;28;20633;-69
2023/07/24 07:48:29;;;;;;;5.60;5.20;;;19.50;99.90;;;;;;5055765;28;23002;-70
2023/07/24 07:50:57;;;;;;;5.40;5.00;;;19.60;99.90;;;;;;5085974;28;20660;-69
2023/07/24 07:53:24;;;;;;;6.57;6.07;;;19.70;99.90;;;;;;5073142;28;20646;-69
2023/07/24 07:55:56;;;;;;;7.70;6.00;;;19.70;99.90;;;;;;5084237;28;20809;-70
2023/07/24 07:58:25;;;;;;;5.88;5.30;;;19.70;99.90;;;;;;5073633;28;20196;-70
2023/07/24 08:00:52;;;;;;;5.72;5.32;;;19.80;99.90;;;;;;5079204;28;20233;-70
2023/07/24 08:03:20;;;;;;;5.70;5.30;;;19.80;99.90;;;;;;5063970;28;20202;-69
2023/07/24 08:05:48;;;;;;;5.80;5.40;;;19.90;99.90;;;;;;5083705;28;20670;-70
2023/07/24 08:08:15;;;;;;;6.70;5.90;;;19.90;99.90;;;;;;5077484;28;20285;-70
2023/07/24 08:10:41;;;;;;;5.43;5.03;;;19.90;99.90;;;;;;5076028;28;20948;-70
2023/07/24 08:13:08;;;;;;;5.50;5.00;;;19.80;99.90;;;;;;5079015;28;20202;-70
2023/07/24 08:15:36;;;;;;;5.80;5.30;;;19.80;99.90;;;;;;5077046;28;20263;-70
2023/07/24 08:18:04;;;;;;;6.28;5.47;;;19.90;99.90;;;;;;5075103;28;20205;-70
2023/07/24 08:20:32;;;;;;;5.95;5.35;;;19.90;99.90;;;;;;5082811;28;20296;-70
2023/07/24 08:22:59;;;;;;;5.78;5.30;;;19.90;99.90;;;;;;5081730;28;20290;-70
2023/07/24 08:25:26;;;;;;;5.40;4.90;;;19.90;99.90;;;;;;5074514;28;20251;-70
2023/07/24 08:27:53;;;;;;;5.30;4.90;;;20.00;99.90;;;;;;5077889;28;20209;-70
2023/07/24 08:30:20;;;;;;;5.82;5.32;;;20.00;99.90;;;;;;5075398;28;20222;-70
2023/07/24 08:32:48;;;;;;;5.57;5.07;;;20.00;99.90;;;;;;5062527;28;20859;-70
2023/07/24 08:35:15;;;;;;;6.13;5.60;;;20.00;99.90;;;;;;5073065;28;20267;-70
2023/07/24 08:37:45;;;;;;;6.15;5.43;;;20.00;99.90;;;;;;5085742;28;20189;-70
2023/07/24 08:40:12;;;;;;;6.07;5.47;;;20.00;99.90;;;;;;5076627;28;20271;-70
2023/07/24 08:42:40;;;;;;;5.82;5.32;;;20.00;99.90;;;;;;5076444;28;22221;-70
2023/07/24 08:45:13;;;;;;;5.00;4.60;;;20.00;99.90;;;;;;5078730;28;20210;-70
2023/07/24 08:47:42;;;;;;;6.03;5.53;;;20.00;99.90;;;;;;5079020;28;20305;-70
2023/07/24 08:50:11;;;;;;;6.47;5.85;;;20.10;99.90;;;;;;5061377;28;20610;-70
2023/07/24 08:52:39;;;;;;;6.03;5.05;;;20.10;99.90;;;;;;5081612;28;20201;-70
2023/07/24 08:55:09;;;;;;;5.97;5.47;;;20.10;99.90;;;;;;5080204;28;20717;-70
2023/07/24 08:57:36;;;;;;;5.43;5.03;;;20.00;99.90;;;;;;5081646;28;20743;-70
2023/07/24 09:00:04;;;;;;;6.22;5.32;;;20.00;99.90;;;;;;5065881;28;20639;-70
2023/07/24 09:02:32;;;;;;;6.00;5.53;;;20.00;99.90;;;;;;5073912;28;20202;-70
2023/07/24 09:04:59;;;;;;;6.25;5.65;;;20.10;99.90;;;;;;5086848;28;20701;-69
2023/07/24 09:07:26;;;;;;;6.40;5.80;;;20.10;99.90;;;;;;5073584;28;20213;-69
2023/07/24 09:09:53;;;;;;;5.72;5.20;;;20.10;99.90;;;;;;5081402;28;20364;-69
2023/07/24 09:12:23;;;;;;;5.85;5.45;;;20.10;99.90;;;;;;5068994;28;20209;-69
2023/07/24 09:15:00;;;;;;;6.45;5.68;;;20.20;99.90;;;;;;5076976;28;20214;-69
2023/07/24 09:17:27;;;;;;;5.18;4.78;;;20.30;99.90;;;;;;5082522;28;20190;-68
2023/07/24 09:19:57;;;;;;;5.40;5.00;;;20.30;99.90;;;;;;5084168;28;20244;-69
2023/07/24 09:22:26;;;;;;;5.75;5.03;;;20.30;99.90;;;;;;5051880;28;20247;-69
2023/07/24 09:24:54;;;;;;;7.63;5.32;;;20.30;99.90;;;;;;5079164;28;20250;-70
2023/07/24 09:27:26;;;;;;;5.32;4.50;;;20.40;99.90;;;;;;5075256;28;20221;-70
2023/07/24 09:29:54;;;;;;;5.40;5.00;;;20.60;99.90;;;;;;5067854;28;20832;-70
2023/07/24 09:32:22;;;;;;;6.03;4.95;;;20.80;99.90;;;;;;5080325;28;20190;-71
2023/07/24 09:34:51;;;;;;;5.63;5.15;;;21.00;99.90;;;;;;5075027;28;20872;-70
2023/07/24 09:37:26;;;;;;;5.68;4.93;;;20.90;99.90;;;;;;5063291;28;20201;-70
2023/07/24 09:39:53;;;;;;;5.03;4.63;;;21.00;99.90;;;;;;5078457;28;20198;-70
2023/07/24 09:42:30;;;;;;;4.78;4.38;;;21.00;99.90;;;;;;5073803;28;20205;-70
2023/07/24 09:44:57;;;;;;;4.95;4.53;;;20.90;99.90;;;;;;5085123;28;20185;-69
2023/07/24 09:47:24;;;;;;;6.28;4.72;;;21.00;99.90;;;;;;5069789;28;20216;-69
2023/07/24 09:49:52;;;;;;;5.25;4.78;;;21.00;99.90;;;;;;5086912;28;20259;-70
2023/07/24 09:52:20;;;;;;;5.03;4.60;;;20.90;99.90;;;;;;5064842;28;20205;-70
2023/07/24 09:54:56;;;;;;;5.35;4.85;;;20.90;99.90;;;;;;5077457;28;20249;-70
2023/07/24 09:57:24;;;;;;;5.43;4.60;;;20.80;99.90;;;;;;5071495;28;20198;-70
2023/07/24 09:59:54;;;;;;;5.15;4.65;;;20.90;99.90;;;;;;5079160;28;20280;-70
2023/07/24 10:02:22;;;;;;;5.13;4.72;;;20.90;99.90;;;;;;5074643;28;20818;-70
2023/07/24 10:04:49;;;;;;;4.68;4.28;;;20.90;99.90;;;;;;5082596;28;20535;-70
2023/07/24 10:07:21;;;;;;;5.50;5.00;;;21.00;99.90;;;;;;5061602;28;20226;-71
2023/07/24 10:09:49;;;;;;;4.65;4.25;;;21.00;99.90;;;;;;5072280;28;20281;-71
2023/07/24 10:12:17;;;;;;;5.10;4.60;;;21.10;99.90;;;;;;5072859;28;20278;-70
2023/07/24 10:14:45;;;;;;;4.70;4.30;;;21.10;99.90;;;;;;5083786;28;20201;-70
2023/07/24 10:17:13;;;;;;;6.82;4.03;;;21.10;99.90;;;;;;5076029;28;20194;-71
2023/07/24 10:19:42;;;;;;;4.97;4.57;;;21.10;99.90;;;;;;5080150;28;20210;-70
2023/07/24 10:22:11;;;;;;;4.68;4.25;;;21.10;99.90;;;;;;5074942;28;20239;-69
2023/07/24 10:24:39;;;;;;;4.68;4.18;;;21.10;99.90;;;;;;5065206;28;20226;-69
2023/07/24 10:27:08;;;;;;;6.93;4.45;;;21.10;99.90;;;;;;5078051;28;20794;-71
2023/07/24 10:29:38;;;;;;;4.97;4.57;;;21.10;99.90;;;;;;5073689;28;20198;-69
2023/07/24 10:32:17;;;;;;;4.28;3.97;;;21.20;99.90;;;;;;5083810;28;20652;-69
2023/07/24 10:34:45;;;;;;;4.18;3.88;;;21.20;99.90;;;;;;5078813;28;20201;-70
2023/07/24 10:37:12;;;;;;;5.30;4.80;;;21.20;99.90;;;;;;5069411;28;20210;-69
2023/07/24 10:39:40;;;;;;;4.93;4.43;;;21.30;99.90;;;;;;5061480;28;20602;-70
2023/07/24 10:42:09;;;;;;;5.15;4.75;;;21.30;99.90;;;;;;5078026;28;20677;-70
2023/07/24 10:44:36;;;;;;;4.05;3.60;;;21.40;99.90;;;;;;5076459;28;20212;-70
2023/07/24 10:47:03;;;;;;;4.38;4.07;;;21.40;99.90;;;;;;5081701;28;20210;-70
2023/07/24 10:49:30;;;;;;;4.90;4.40;;;21.40;99.90;;;;;;5086476;28;20190;-70
2023/07/24 10:51:59;;;;;;;5.07;4.32;;;21.50;99.90;;;;;;5081519;28;20212;-70
2023/07/24 10:54:26;;;;;;;4.30;4.00;;;21.60;99.90;;;;;;5066769;28;20432;-70
2023/07/24 10:56:59;;;;;;;4.50;4.20;;;21.40;99.90;;;;;;5079156;28;20287;-70
2023/07/24 10:59:37;;;;;;;5.13;4.72;;;21.50;99.90;;;;;;5081410;28;20931;-70
2023/07/24 11:02:05;;;;;;;5.15;4.75;;;21.60;99.90;;;;;;5076046;28;20295;-70
2023/07/24 11:04:33;;;;;;;4.55;4.10;;;21.50;99.90;;;;;;5077365;28;20670;-70
2023/07/24 11:07:01;;;;;;;4.70;4.30;;;21.50;99.90;;;;;;5079053;28;20603;-70
2023/07/24 11:09:37;;;;;;;5.15;4.68;;;21.70;99.90;;;;;;5063997;28;20195;-69
2023/07/24 11:12:11;;;;;;;5.20;4.47;;;21.80;99.90;;;;;;5069711;28;20822;-69
2023/07/24 11:14:50;;;;;;;4.82;4.38;;;21.80;99.90;;;;;;5085257;28;20227;-70
2023/07/24 11:17:17;;;;;;;5.22;4.35;;;22.00;99.90;;;;;;5077955;28;20222;-70
2023/07/24 11:19:44;;;;;;;4.65;4.30;;;22.10;99.90;;;;;;5087142;28;20247;-70
2023/07/24 11:22:13;;;;;;;5.35;4.53;;;22.20;99.90;;;;;;5074181;28;20881;-70
2023/07/24 11:24:47;;;;;;;4.57;4.18;;;22.50;99.90;;;;;;5084323;28;20245;-70
2023/07/24 11:27:15;;;;;;;4.20;3.90;;;22.50;99.90;;;;;;5075317;28;20190;-70
2023/07/24 11:29:47;;;;;;;4.47;4.10;;;22.50;99.90;;;;;;5074999;28;20244;-70
2023/07/24 11:32:18;;;;;;;4.22;3.92;;;22.70;99.90;;;;;;5073841;28;20201;-70
2023/07/24 11:34:45;;;;;;;4.07;3.78;;;22.80;99.90;;;;;;5080951;28;20194;-70
2023/07/24 11:37:14;;;;;;;4.30;4.00;;;22.90;99.90;;;;;;5081269;28;20970;-70
2023/07/24 11:39:41;;;;;;;3.83;3.63;;;22.90;99.90;;;;;;5080337;28;20287;-70
2023/07/24 11:42:08;;;;;;;3.97;3.67;;;22.90;99.90;;;;;;5067501;28;20197;-70
2023/07/24 11:44:35;;;;;;;4.32;3.75;;;22.80;99.90;;;;;;5077644;28;20558;-70
2023/07/24 11:47:03;;;;;;;4.10;3.70;;;22.70;99.90;;;;;;5070147;28;20259;-70
2023/07/24 11:49:31;;;;;;;5.18;4.03;;;22.70;99.90;;;;;;5085260;28;20204;-70
2023/07/24 11:52:02;;;;;;;5.47;4.05;;;22.80;99.90;;;;;;5079625;28;20210;-70
2023/07/24 11:54:30;;;;;;;5.20;3.85;;;22.90;99.90;;;;;;5079129;28;20206;-70
2023/07/24 11:56:57;;;;;;;4.35;4.00;;;22.90;99.90;;;;;;5065454;28;20900;-70
2023/07/24 11:59:25;;;;;;;3.47;3.28;;;23.10;99.90;;;;;;5075473;28;20206;-69
2023/07/24 12:01:52;;;;;;;3.50;3.20;;;23.20;99.90;;;;;;5078052;28;20217;-70
2023/07/24 12:04:20;;;;;;;4.18;3.78;;;23.30;99.90;;;;;;5082785;28;20917;-70
2023/07/24 12:06:47;;;;;;;4.00;3.70;;;23.20;99.90;;;;;;5082517;28;20187;-70
2023/07/24 12:09:14;;;;;;;3.63;3.33;;;23.10;99.90;;;;;;5075961;28;21904;-70
2023/07/24 12:11:43;;;;;;;3.63;3.33;;;23.10;99.90;;;;;;5085120;28;20275;-71
2023/07/24 12:14:10;;;;;;;4.30;4.00;;;23.10;99.90;;;;;;5071255;28;20933;-71
2023/07/24 12:16:37;;;;;;;4.13;3.83;;;23.10;99.90;;;;;;5080241;28;20214;-71
2023/07/24 12:19:04;;;;;;;4.25;3.78;;;22.90;99.90;;;;;;5072432;28;20432;-71
2023/07/24 12:21:31;;;;;;;3.88;3.55;;;23.00;99.90;;;;;;5080727;28;20202;-71
2023/07/24 12:23:58;;;;;;;4.22;3.83;;;23.10;99.90;;;;;;5069964;28;20194;-71
2023/07/24 12:26:27;;;;;;;4.00;3.70;;;23.30;99.90;;;;;;5084384;28;20923;-71
2023/07/24 12:28:55;;;;;;;4.93;3.92;;;23.40;99.90;;;;;;5060361;28;20212;-71
2023/07/24 12:31:22;;;;;;;3.90;3.38;;;23.40;99.90;;;;;;5081094;28;20563;-71
2023/07/24 12:33:49;;;;;;;5.43;4.18;;;23.40;99.90;;;;;;5072230;28;20197;-72
2023/07/24 12:36:16;;;;;;;3.80;3.47;;;23.50;99.90;;;;;;5077582;28;20213;-71
2023/07/24 12:38:43;;;;;;;4.57;4.18;;;23.60;99.90;;;;;;5083690;28;20273;-71
2023/07/24 12:41:10;;;;;;;3.47;3.28;;;23.80;99.90;;;;;;5074343;28;20230;-71
2023/07/24 12:43:37;;;;;;;3.45;3.15;;;23.80;99.90;;;;;;5064931;28;20242;-69
2023/07/24 12:46:05;;;;;;;3.75;3.55;;;23.60;99.90;;;;;;5054693;28;20438;-69
2023/07/24 12:48:32;;;;;;;4.07;3.50;;;23.60;99.90;;;;;;5083185;28;20222;-70
2023/07/24 12:51:00;;;;;;;3.40;3.10;;;23.80;99.90;;;;;;5077021;28;20218;-70